• Join FlightAware (Why Join?)
  • Login
  • US Flag 
06:58PM EDT


 

Airport Tracker/Info


-or-


 

Live Flight TrackerFlight Track Log ✈ RPA3159 ✈ 13-May-2013 ✈ KBTV - KPHL

Flight Track Log - Related Links

Times and Time Zones

All times are in EDT time to prevent confusion due to time zone crossing. See the RPA3159 flight status page for this flight to view local times or setup timezone preferences in your user account.

Time Position Orientation Groundspeed Altitude Reporting Facility
EDT Latitude Longitude Course Direction KTS MPH feet Rate Location/Type
11:33AM 44.1931 -73.2526 195° South  Level FlightAware Approximate
11:34AM 44.1014 -73.2870 195° South  Level FlightAware Approximate
11:34AM 44.4808 -73.3419 198° South 252 290 8,400  Level Boston Center
11:35AM 44.0092 -73.3192 194° South  Level FlightAware Approximate
11:35AM 44.4075 -73.3642 192° South 303 349 10,200  Level Boston Center
11:36AM 43.9168 -73.3499 193° South  Level FlightAware Approximate
11:36AM 44.3450 -73.3806 191° South 292 336 12,600  Level Boston Center
11:37AM 43.8251 -73.3844 195° South  Level FlightAware Approximate
11:37AM 44.2489 -73.4081 192° South 292 336 16,300  Level Boston Center
11:38AM 43.7334 -73.4188 195° South  Level FlightAware Approximate
11:38AM 44.1717 -73.4300 192° South 297 342 18,900  Level Boston Center
11:39AM 43.6418 -73.4537 198° South  Level FlightAware Approximate
11:39AM 44.0881 -73.4719 200° South 297 342 21,700  Level Boston Center
11:40AM 44.0167 -73.5283 210° Southwest 297 342 22,000 120 Climbing Boston Center
11:41AM 43.9431 -73.5878 210° Southwest 308 354 22,000  Level Boston Center
11:42AM 43.8717 -73.6439 210° Southwest 303 349 22,000  Level Boston Center
11:43AM 43.8003 -73.7028 211° Southwest 303 349 22,000  Level Boston Center
11:44AM 43.7350 -73.7533 209° Southwest 303 349 22,000  Level Boston Center
11:45AM 43.6636 -73.8092 210° Southwest 303 349 22,000  Level Boston Center
11:46AM 43.5897 -73.8647 209° Southwest 303 349 22,000  Level Boston Center
11:47AM 43.5203 -73.9233 211° Southwest 298 343 22,000  Level Boston Center
11:48AM 43.4467 -73.9786 209° Southwest 298 343 22,000  Level Boston Center
11:49AM 43.3686 -74.0425 211° Southwest 298 343 22,000  Level Boston Center
11:50AM 43.2947 -74.1031 211° Southwest 298 343 22,000  Level Boston Center
11:51AM 43.2231 -74.1583 209° Southwest 298 343 22,000  Level Boston Center
11:52AM 43.1514 -74.2131 209° Southwest 298 343 22,000  Level Boston Center
11:53AM 43.0775 -74.2706 210° Southwest 298 343 22,000  Level Boston Center
11:54AM 43.0081 -74.3253 210° Southwest 298 343 22,000  Level Boston Center
11:55AM 42.9319 -74.3856 210° Southwest 303 349 22,000  Level Boston Center
11:56AM 42.8622 -74.4400 210° Southwest 303 349 22,000  Level Boston Center
11:57AM 42.7903 -74.4969 210° Southwest 297 342 22,000  Level Boston Center
11:58AM 42.7186 -74.5483 208° Southwest 297 342 22,000  Level Boston Center
11:59AM 42.6486 -74.6025 210° Southwest 297 342 22,000  Level Boston Center
12:00PM 42.5767 -74.6592 210° Southwest 302 348 22,000 -600 Level Boston Center
12:01PM 42.5006 -74.7183 210° Southwest 302 348 20,900 -1,140 Descending Boston Center
12:02PM 42.4181 -74.7800 209° Southwest 323 372 19,800 -960 Descending Boston Center
12:03PM 42.3375 -74.8389 208° Southwest 335 386 19,000 -840 Descending Boston Center
12:04PM 42.2569 -74.9003 209° Southwest 335 386 18,200 -1,140 Descending Boston Center
12:05PM 42.1764 -74.9617 209° Southwest 335 386 16,800 -840 Descending Boston Center
12:06PM 42.0497 -75.0664 212° Southwest 345 397 16,000 -300 Descending New York Center
12:07PM 41.9725 -75.1311 212° Southwest 340 391 16,000  Level New York Center
12:08PM 41.8867 -75.1978 210° Southwest 327 376 16,000  Level New York Center
12:09PM 41.8094 -75.2594 211° Southwest 327 376 16,000  Level New York Center
12:10PM 41.7319 -75.3239 212° Southwest 332 382 16,000  Level New York Center
12:11PM 41.6631 -75.3803 211° Southwest 325 374 16,000 -600 Level New York Center
12:12PM 41.5858 -75.4414 211° Southwest 325 374 14,900 -1,500 Descending New York Center
12:13PM 41.5019 -75.5075 211° Southwest 325 374 13,000 -1,440 Descending New York Center
12:14PM 41.4267 -75.5658 210° Southwest 325 374 12,000 -540 Descending New York Center
12:15PM 41.3664 -75.6142 211° Southwest 325 374 12,000  Level New York Center
12:16PM 41.2803 -75.6825 211° Southwest 325 374 12,000  Level New York Center
12:17PM 41.1953 -75.6764 177° South 305 351 12,000  Level New York Center
12:18PM 41.0944 -75.6414 165° South 331 381 12,000  Level New York Center
12:19PM 41.0225 -75.6197 167° South 337 388 12,000  Level New York Center
12:20PM 40.9178 -75.5847 166° South 343 395 12,000  Level New York Center
12:21PM 40.8272 -75.5564 167° South 343 395 12,000  Level New York Center
12:22PM 40.7264 -75.5219 165° South 338 389 12,000 -480 Level New York Center
12:23PM 40.6461 -75.4972 167° South 338 389 11,100 -960 Descending New York Center
12:24PM 40.5578 -75.4667 165° South 331 381 10,100 -660 Descending New York Center
12:25PM 40.4756 -75.4392 166° South 297 342 9,800 -600 Descending New York Center
12:26PM 40.3997 -75.4042 161° South 291 335 9,000 -840 Descending New York Center
12:27PM 40.3286 -75.3611 155° Southeast 286 329 8,200 -1,500 Descending New York Center
12:28PM 40.2672 -75.3272 157° South 281 323 6,000 -1,080 Descending New York Center
12:29PM 40.1878 -75.2839 157° South 283 326 6,100  Climbing New York Center
12:30PM 40.1183 -75.2442 156° South 283 326 6,000 -120 Descending New York Center
12:31PM 40.0833 -75.2167 149° Southeast 272 313 6,000  Level Philadelphia TRACON
12:32PM 40.0167 -75.1833 159° South 255 293 6,000  Level Philadelphia TRACON
12:33PM 39.9833 -75.1167 123° Southeast 210 242 6,000 -240 Level Philadelphia TRACON
12:34PM 40.0000 -75.0500 72° East 216 249 5,600 -960 Descending Philadelphia TRACON
12:35PM 40.0167 -74.9667 75° East 213 245 4,000 -960 Descending Philadelphia TRACON
12:36PM 40.0167 -74.9000 90° East 200 230 3,700 -480 Descending Philadelphia TRACON
12:37PM 39.9500 -74.9167 191° South 192 221 3,000 -360 Descending Philadelphia TRACON
12:38PM 39.9167 -74.9833 237° Southwest 178 205 3,000 -60 Level Philadelphia TRACON
12:39PM 39.9167 -75.0500 270° West 180 207 2,900 -540 Descending Philadelphia TRACON
12:40PM 39.9000 -75.1000 247° West 177 204 2,000 -1,020 Descending Philadelphia TRACON